首页
METAR-TAF:

METAR-TAF

机场 :

Sheldon Municipal Airport

Sheldon, 艾奥瓦州, 美国

纬度: 43-13N, 经度: 095-50W, 海拔: 432米

当前天气观测

该预报发布于28分钟前的20:15 UTC
风速15节,风向,有时为26节阵风
温度 -6°C
湿度 62%
气压 1022 hPa
能見度: 16.1公里
天空无云

METAR: KSHL 122015Z AUTO 18015G26KT 10SM CLR M06/M12 A3017 RMK AO2

时间: 14:43 (20:43 UTC)


TAF: 丢失

超过4000个机场的气象观测和天气预报(METAR&TAF报告)。

可查询的气象台以黄色和红色小点在地图上表示。

将鼠标移到小点上方,可查看气象台名称。

然后点击查看天气观测和预报。

如需切换地图:点击带黑十字的绿色按钮放大地图;点击带横线的绿色按钮缩小地图;或者点击绿色箭头查看邻近地区的地图。


METAR-TAF: